Time;durP1;ratioP1;P1;durP2;ratioP2;P2;SDS_P1;SDS_P2;PMS_P1;PMS_P2;Temp;Humidity;BMP_temperature;BMP_pressure;BME280_temperature;BME280_humidity;BME280_pressure;Samples;Min_cycle;Max_cycle;Signal;HPM_P1;HPM_P2
2023/04/04 00:02:53;;;;;;;2.63;1.67;;;2.00;99.90;;;;;;20734843;28;20033;-80
2023/04/04 00:12:54;;;;;;;3.45;1.95;;;1.90;99.90;;;;;;20750770;28;20038;-79
2023/04/04 00:22:55;;;;;;;5.15;2.25;;;1.90;99.90;;;;;;20716371;28;20042;-79
2023/04/04 00:32:56;;;;;;;2.90;1.80;;;1.80;99.90;;;;;;20731382;28;20049;-79
2023/04/04 00:42:59;;;;;;;3.42;1.80;;;1.80;99.90;;;;;;20752809;28;20443;-79
2023/04/04 00:53:00;;;;;;;5.40;1.77;;;1.70;99.90;;;;;;20812962;28;20525;-79
2023/04/04 01:03:01;;;;;;;8.18;2.13;;;1.70;99.90;;;;;;20829539;28;20458;-80
2023/04/04 01:13:02;;;;;;;4.32;2.30;;;1.60;99.90;;;;;;20829972;28;20556;-81
2023/04/04 01:23:04;;;;;;;4.53;2.00;;;1.60;99.90;;;;;;20811564;28;20029;-80
2023/04/04 01:33:05;;;;;;;7.18;2.53;;;1.40;99.90;;;;;;20810423;28;20036;-79
2023/04/04 01:43:07;;;;;;;5.43;2.53;;;1.40;99.90;;;;;;20749657;28;20033;-80
2023/04/04 01:53:09;;;;;;;6.00;2.80;;;1.20;99.90;;;;;;20744642;28;20029;-80
2023/04/04 02:03:10;;;;;;;5.93;2.35;;;1.20;99.90;;;;;;20762288;28;20491;-80
2023/04/04 02:13:11;;;;;;;3.45;2.35;;;1.10;99.90;;;;;;20742763;28;20069;-80
2023/04/04 02:23:12;;;;;;;7.50;2.63;;;0.90;99.90;;;;;;20742736;28;20034;-79
2023/04/04 02:33:13;;;;;;;7.35;2.80;;;0.80;99.90;;;;;;20741102;28;20030;-80
2023/04/04 02:43:14;;;;;;;7.18;2.70;;;0.70;99.90;;;;;;20740511;28;20030;-80
2023/04/04 02:53:16;;;;;;;5.93;2.50;;;0.60;99.90;;;;;;20737654;28;20065;-80
2023/04/04 03:03:18;;;;;;;8.50;2.67;;;0.40;99.90;;;;;;20737408;28;20376;-81
2023/04/04 03:13:20;;;;;;;5.82;2.50;;;0.40;99.90;;;;;;20736251;28;20026;-80
2023/04/04 03:23:21;;;;;;;7.45;2.83;;;0.30;99.90;;;;;;20738453;28;20040;-83
2023/04/04 03:33:22;;;;;;;5.35;2.80;;;0.30;99.90;;;;;;20746858;28;20029;-83
2023/04/04 03:43:23;;;;;;;4.60;2.72;;;0.10;99.90;;;;;;20786795;28;20087;-83
2023/04/04 03:53:25;;;;;;;6.28;2.42;;;0.10;99.90;;;;;;20824687;28;20038;-81
2023/04/04 04:03:26;;;;;;;6.40;2.40;;;0.00;99.90;;;;;;20802573;28;20034;-83
2023/04/04 04:13:28;;;;;;;6.90;3.10;;;0.00;99.90;;;;;;20714972;28;20368;-80
2023/04/04 04:23:30;;;;;;;4.03;2.70;;;0.00;99.90;;;;;;20672240;28;20562;-83
2023/04/04 04:33:31;;;;;;;12.07;3.05;;;-0.10;99.90;;;;;;20718838;28;20038;-84
2023/04/04 04:43:36;;;;;;;7.97;3.53;;;-0.10;99.90;;;;;;20736026;28;20106;-82
2023/04/04 04:53:38;;;;;;;6.10;2.90;;;-0.10;99.90;;;;;;20739206;28;20088;-81
2023/04/04 05:03:39;;;;;;;5.40;2.67;;;-0.10;99.90;;;;;;20754581;28;20029;-80
2023/04/04 05:13:43;;;;;;;4.38;2.97;;;-0.10;99.90;;;;;;20758017;28;20421;-82
2023/04/04 05:23:47;;;;;;;7.43;2.90;;;-0.10;99.90;;;;;;20758125;28;20177;-80
2023/04/04 05:33:49;;;;;;;5.55;2.97;;;-0.10;99.90;;;;;;20760353;28;20521;-82
2023/04/04 05:44:00;;;;;;;7.28;3.03;;;0.00;99.90;;;;;;20743900;28;20048;-78
2023/04/04 05:54:02;;;;;;;4.28;2.58;;;0.40;99.90;;;;;;20756579;28;20069;-79
2023/04/04 06:04:07;;;;;;;4.43;2.75;;;0.70;99.90;;;;;;20762621;28;20033;-78
2023/04/04 06:14:08;;;;;;;4.90;2.58;;;1.20;99.90;;;;;;20778528;28;20052;-79
2023/04/04 06:24:10;;;;;;;3.80;2.92;;;1.60;99.90;;;;;;20748390;28;20299;-81
2023/04/04 06:34:11;;;;;;;3.63;2.42;;;1.90;99.90;;;;;;20762581;28;20061;-79
2023/04/04 06:44:26;;;;;;;6.40;3.10;;;2.10;99.90;;;;;;20759546;28;20128;-80
2023/04/04 06:54:27;;;;;;;7.47;2.83;;;2.50;99.90;;;;;;20762210;28;20120;-79
2023/04/04 07:04:28;;;;;;;4.22;2.70;;;2.70;99.90;;;;;;20781966;28;20033;-79
2023/04/04 07:14:29;;;;;;;8.70;2.78;;;3.30;99.90;;;;;;20745576;28;20181;-77
2023/04/04 07:24:30;;;;;;;5.38;3.05;;;3.90;99.90;;;;;;20694501;28;20046;-77
2023/04/04 07:34:31;;;;;;;7.80;2.95;;;4.30;99.90;;;;;;20693817;28;20391;-79
2023/04/04 07:44:32;;;;;;;5.43;2.50;;;4.20;99.90;;;;;;20745721;28;20491;-79
2023/04/04 07:54:32;;;;;;;;;;;5.30;99.90;;;;;;20759170;28;20487;-78
2023/04/04 08:04:33;;;;;;;5.17;2.60;;;5.30;99.90;;;;;;20763427;28;19916;-78
2023/04/04 08:14:34;;;;;;;;;;;5.60;99.90;;;;;;20729410;28;20344;-81
2023/04/04 08:24:35;;;;;;;4.50;2.10;;;6.20;99.90;;;;;;20662113;28;19993;-79
2023/04/04 08:34:36;;;;;;;6.38;2.30;;;6.50;99.90;;;;;;20677075;28;20041;-78
2023/04/04 08:44:40;;;;;;;8.77;3.00;;;6.80;99.80;;;;;;20700567;28;20105;-82
2023/04/04 08:54:43;;;;;;;7.43;2.92;;;6.70;98.90;;;;;;20729398;28;20319;-79
2023/04/04 09:04:47;;;;;;;8.30;2.20;;;7.30;99.40;;;;;;20749498;28;20026;-80
2023/04/04 09:14:50;;;;;;;3.47;2.22;;;7.90;98.90;;;;;;20694102;28;20061;-80
2023/04/04 09:24:51;;;;;;;4.38;2.30;;;8.00;97.00;;;;;;20684275;28;20034;-82
2023/04/04 09:34:53;;;;;;;7.90;2.33;;;7.80;98.00;;;;;;20682010;28;20034;-79
2023/04/04 09:44:54;;;;;;;3.65;2.15;;;8.70;96.30;;;;;;20702509;28;20067;-83
2023/04/04 09:54:59;;;;;;;17.07;6.67;;;8.90;96.20;;;;;;20746113;28;20034;-81
2023/04/04 10:05:02;;;;;;;4.75;2.55;;;8.80;94.40;;;;;;20752666;28;20080;-82
2023/04/04 10:15:03;;;;;;;9.30;4.10;;;9.30;94.30;;;;;;20777610;28;20030;-79
2023/04/04 10:25:06;;;;;;;3.35;2.15;;;9.90;93.30;;;;;;20774884;28;20034;-78
2023/04/04 10:35:10;;;;;;;5.65;2.65;;;10.00;92.80;;;;;;20749915;28;20137;-78
2023/04/04 10:45:13;;;;;;;3.40;2.08;;;10.80;92.40;;;;;;20772578;28;20092;-77
2023/04/04 10:55:15;;;;;;;4.28;2.10;;;10.90;91.60;;;;;;20733710;28;20112;-79
2023/04/04 11:05:28;;;;;;;;;;;10.80;90.60;;;;;;20725901;28;20491;-78
2023/04/04 11:16:00;;;;;;;2.42;1.58;;;11.00;91.10;;;;;;20877548;22;19944;-80
2023/04/04 11:26:02;;;;;;;4.15;1.90;;;11.30;90.50;;;;;;20756026;28;20042;-80
2023/04/04 11:36:07;;;;;;;2.85;1.92;;;11.50;91.20;;;;;;20769564;28;20403;-80
2023/04/04 11:46:09;;;;;;;3.67;1.80;;;11.90;89.00;;;;;;20763873;28;20042;-80
2023/04/04 11:56:15;;;;;;;29.75;12.52;;;11.70;88.50;;;;;;20768905;28;20025;-79
2023/04/04 12:06:15;;;;;;;12.32;6.30;;;11.90;86.70;;;;;;20772344;28;20045;-81
2023/04/04 12:16:20;;;;;;;7.00;4.60;;;12.30;87.30;;;;;;20766440;28;20054;-80
2023/04/04 12:26:21;;;;;;;3.22;1.45;;;12.60;85.90;;;;;;20693720;28;20516;-80
2023/04/04 12:36:25;;;;;;;3.07;1.80;;;12.10;84.40;;;;;;20688981;28;20046;-80
2023/04/04 12:46:26;;;;;;;2.17;1.50;;;12.20;85.20;;;;;;20738656;28;20130;-81
2023/04/04 12:56:28;;;;;;;3.25;1.67;;;12.40;84.50;;;;;;20768988;28;20029;-79
2023/04/04 13:06:31;;;;;;;5.03;2.22;;;12.50;83.80;;;;;;20763546;28;20112;-80
2023/04/04 13:16:35;;;;;;;1.90;1.55;;;12.40;81.60;;;;;;20764743;28;20053;-79
2023/04/04 13:26:36;;;;;;;15.60;7.93;;;12.50;82.20;;;;;;20753937;28;20034;-80
2023/04/04 13:36:37;;;;;;;3.90;2.33;;;12.50;82.40;;;;;;20769003;28;20029;-81
2023/04/04 13:46:37;;;;;;;2.47;1.63;;;12.40;80.20;;;;;;20765853;28;20040;-80
2023/04/04 13:56:39;;;;;;;4.00;1.60;;;12.20;84.70;;;;;;20770457;28;20030;-79
2023/04/04 14:06:40;;;;;;;2.65;1.70;;;12.00;82.00;;;;;;20773941;28;20030;-80
2023/04/04 14:16:41;;;;;;;2.80;1.70;;;12.10;80.30;;;;;;20782197;28;20048;-79
2023/04/04 14:26:42;;;;;;;2.70;1.60;;;12.30;82.50;;;;;;20776604;28;20026;-79
2023/04/04 14:36:43;;;;;;;4.60;1.60;;;12.30;80.50;;;;;;20785306;28;20034;-80
2023/04/04 14:46:44;;;;;;;4.43;1.90;;;12.30;79.60;;;;;;20781515;28;20041;-79
2023/04/04 14:56:45;;;;;;;3.57;2.03;;;12.40;79.90;;;;;;20775155;28;20475;-79
2023/04/04 15:06:46;;;;;;;;;;;12.50;79.60;;;;;;20755610;28;20034;-77
2023/04/04 15:16:47;;;;;;;4.10;1.77;;;12.10;81.20;;;;;;20789866;28;19919;-78
2023/04/04 15:26:48;;;;;;;3.47;1.70;;;12.00;80.10;;;;;;20749355;28;20037;-78
2023/04/04 15:36:50;;;;;;;9.33;3.90;;;11.30;80.80;;;;;;20780214;28;20052;-78
2023/04/04 15:46:51;;;;;;;7.50;3.08;;;11.40;82.10;;;;;;20749262;28;20057;-76
2023/04/04 15:56:52;;;;;;;7.67;2.70;;;11.00;82.60;;;;;;20747703;28;20049;-78
2023/04/04 16:06:53;;;;;;;6.10;2.53;;;10.20;82.70;;;;;;20745547;28;20045;-77
2023/04/04 16:16:54;;;;;;;6.77;3.07;;;9.70;84.10;;;;;;20705930;28;20053;-78
2023/04/04 16:26:55;;;;;;;3.10;2.33;;;9.10;86.30;;;;;;20664639;28;20153;-78
2023/04/04 16:36:55;;;;;;;3.33;2.00;;;9.10;86.90;;;;;;20744179;28;20058;-77
2023/04/04 16:46:56;;;;;;;7.50;2.70;;;8.60;87.20;;;;;;20745208;28;20072;-77
2023/04/04 16:56:57;;;;;;;6.47;2.90;;;8.40;87.50;;;;;;20742845;28;20509;-77
2023/04/04 17:06:58;;;;;;;5.40;2.63;;;8.20;88.90;;;;;;20663769;28;20050;-77
2023/04/04 17:16:59;;;;;;;3.40;2.20;;;8.10;88.40;;;;;;20751816;23;20049;-79
2023/04/04 17:27:00;;;;;;;7.03;3.00;;;7.90;89.30;;;;;;20703626;28;20034;-79
2023/04/04 17:37:01;;;;;;;3.87;2.70;;;7.40;90.20;;;;;;20767912;28;20125;-79
2023/04/04 17:47:02;;;;;;;9.70;3.13;;;7.30;90.50;;;;;;20777465;28;20033;-78
2023/04/04 17:57:05;;;;;;;5.97;3.20;;;6.90;91.80;;;;;;20783879;28;20366;-79
2023/04/04 18:07:07;;;;;;;7.15;4.15;;;6.20;93.60;;;;;;20772155;28;20072;-80
2023/04/04 18:17:09;;;;;;;7.70;3.15;;;5.80;94.60;;;;;;20758036;28;20117;-81
2023/04/04 18:27:10;;;;;;;5.72;3.22;;;5.60;94.80;;;;;;20765815;28;20054;-80
2023/04/04 18:37:11;;;;;;;5.18;2.92;;;5.30;95.60;;;;;;20765168;28;20034;-79
2023/04/04 18:47:12;;;;;;;;;;;5.20;95.90;;;;;;20761513;28;20080;-81
2023/04/04 18:57:13;;;;;;;4.40;2.87;;;4.70;96.70;;;;;;20765119;28;19913;-81
2023/04/04 19:07:20;;;;;;;6.10;3.20;;;4.40;97.90;;;;;;20751828;28;20521;-81
2023/04/04 19:17:21;;;;;;;6.13;3.95;;;4.00;99.70;;;;;;20723054;28;20037;-80
2023/04/04 19:27:22;;;;;;;5.15;3.45;;;3.70;99.90;;;;;;20693556;28;20034;-78
2023/04/04 19:37:23;;;;;;;6.47;3.90;;;3.70;99.90;;;;;;20743423;28;20018;-81
2023/04/04 19:47:24;;;;;;;10.00;4.72;;;3.20;99.90;;;;;;20734664;28;20481;-81
2023/04/04 19:57:26;;;;;;;5.93;3.67;;;2.90;99.90;;;;;;20725348;28;20030;-81
2023/04/04 20:07:27;;;;;;;5.43;3.53;;;3.00;99.90;;;;;;20758583;28;20514;-82
2023/04/04 20:17:28;;;;;;;7.00;4.28;;;2.70;99.90;;;;;;20767311;28;20404;-81
2023/04/04 20:27:32;;;;;;;6.60;3.53;;;2.30;99.90;;;;;;20761245;28;20037;-80
2023/04/04 20:37:32;;;;;;;7.10;3.78;;;2.20;99.90;;;;;;20737329;28;20108;-81
2023/04/04 20:47:39;;;;;;;10.90;4.20;;;2.20;99.90;;;;;;20753059;28;20412;-76
2023/04/04 20:57:40;;;;;;;9.45;4.05;;;2.10;99.90;;;;;;20735901;28;20144;-77
2023/04/04 21:07:42;;;;;;;8.95;3.97;;;2.00;99.90;;;;;;20705638;28;20086;-78
2023/04/04 21:17:43;;;;;;;7.15;3.78;;;1.80;99.90;;;;;;20686441;28;20030;-79
2023/04/04 21:27:51;;;;;;;7.70;4.20;;;1.80;99.90;;;;;;20669817;28;20038;-79
2023/04/04 21:37:51;;;;;;;6.95;4.20;;;1.70;99.90;;;;;;20747889;28;20034;-80
2023/04/04 21:47:52;;;;;;;7.45;4.32;;;1.90;99.90;;;;;;20719119;28;20099;-79
2023/04/04 21:57:53;;;;;;;8.80;4.57;;;1.60;99.90;;;;;;20707631;28;20030;-79
2023/04/04 22:07:54;;;;;;;14.23;4.30;;;1.40;99.90;;;;;;20717053;28;20057;-81
2023/04/04 22:18:02;;;;;;;11.20;4.55;;;1.40;99.90;;;;;;20694726;28;20046;-77
2023/04/04 22:28:07;;;;;;;6.18;3.60;;;1.40;99.90;;;;;;20696092;28;20030;-79
2023/04/04 22:38:07;;;;;;;6.05;4.30;;;1.30;99.90;;;;;;20764651;28;20044;-80
2023/04/04 22:48:08;;;;;;;6.78;3.72;;;1.30;99.90;;;;;;20787567;28;20022;-80
2023/04/04 22:58:09;;;;;;;6.50;4.03;;;1.10;99.90;;;;;;20773505;28;20061;-80
2023/04/04 23:18:15;;;;;;;6.15;3.97;;;1.30;99.90;;;;;;20786725;22;20038;-79
2023/04/04 23:28:16;;;;;;;5.85;3.65;;;0.80;99.90;;;;;;20793406;28;20030;-79
2023/04/04 23:38:17;;;;;;;7.68;3.58;;;0.40;99.90;;;;;;20774226;28;20036;-80
2023/04/04 23:48:17;;;;;;;8.88;4.00;;;0.60;99.90;;;;;;20773691;28;20033;-79
2023/04/04 23:58:18;;;;;;;9.10;4.30;;;0.90;99.90;;;;;;20771822;28;20442;-80
